sensor_id;sensor_type;location;lat;lon;timestamp;pressure;altitude;pressure_sealevel;temperature;humidity
13348;BME280;6743;49.934;9.138;2023-01-20T00:01:00;99829.97;;;0.70;100.00
13348;BME280;6743;49.934;9.138;2023-01-20T00:03:26;99816.88;;;0.59;100.00
13348;BME280;6743;49.934;9.138;2023-01-20T00:05:52;99836.16;;;0.69;100.00
13348;BME280;6743;49.934;9.138;2023-01-20T00:08:18;99844.09;;;0.67;100.00
13348;BME280;6743;49.934;9.138;2023-01-20T00:10:44;99838.03;;;0.67;100.00
13348;BME280;6743;49.934;9.138;2023-01-20T00:13:11;99835.44;;;0.67;100.00
13348;BME280;6743;49.934;9.138;2023-01-20T00:15:37;99821.25;;;0.58;100.00
13348;BME280;6743;49.934;9.138;2023-01-20T00:18:03;99841.59;;;0.66;100.00
13348;BME280;6743;49.934;9.138;2023-01-20T00:20:29;99846.91;;;0.64;100.00
13348;BME280;6743;49.934;9.138;2023-01-20T00:22:55;99851.41;;;0.62;100.00
13348;BME280;6743;49.934;9.138;2023-01-20T00:25:21;99856.75;;;0.61;100.00
13348;BME280;6743;49.934;9.138;2023-01-20T00:27:47;99855.94;;;0.60;100.00
13348;BME280;6743;49.934;9.138;2023-01-20T00:30:14;99855.09;;;0.60;100.00
13348;BME280;6743;49.934;9.138;2023-01-20T00:32:40;99862.09;;;0.59;100.00
13348;BME280;6743;49.934;9.138;2023-01-20T00:35:09;99868.25;;;0.58;100.00
13348;BME280;6743;49.934;9.138;2023-01-20T00:37:35;99860.50;;;0.57;100.00
13348;BME280;6743;49.934;9.138;2023-01-20T00:40:01;99866.69;;;0.56;100.00
13348;BME280;6743;49.934;9.138;2023-01-20T00:42:27;99876.41;;;0.54;100.00
13348;BME280;6743;49.934;9.138;2023-01-20T00:44:53;99872.13;;;0.53;100.00
13348;BME280;6743;49.934;9.138;2023-01-20T00:47:20;99878.28;;;0.52;100.00
13348;BME280;6743;49.934;9.138;2023-01-20T00:49:46;99881.75;;;0.52;100.00
13348;BME280;6743;49.934;9.138;2023-01-20T00:52:12;99894.06;;;0.50;100.00
13348;BME280;6743;49.934;9.138;2023-01-20T00:54:38;99895.81;;;0.50;100.00
13348;BME280;6743;49.934;9.138;2023-01-20T00:57:04;99902.00;;;0.49;100.00
13348;BME280;6743;49.934;9.138;2023-01-20T00:59:30;99885.09;;;0.42;100.00
13348;BME280;6743;49.934;9.138;2023-01-20T01:01:55;99905.56;;;0.48;100.00
13348;BME280;6743;49.934;9.138;2023-01-20T01:04:22;99909.22;;;0.45;100.00
13348;BME280;6743;49.934;9.138;2023-01-20T01:06:48;99921.53;;;0.43;100.00
13348;BME280;6743;49.934;9.138;2023-01-20T01:09:15;99917.03;;;0.45;100.00
13348;BME280;6743;49.934;9.138;2023-01-20T01:11:41;99923.94;;;0.46;100.00
13348;BME280;6743;49.934;9.138;2023-01-20T01:14:07;99923.31;;;0.43;100.00
13348;BME280;6743;49.934;9.138;2023-01-20T01:16:33;99920.00;;;0.41;100.00
13348;BME280;6743;49.934;9.138;2023-01-20T01:18:59;99912.06;;;0.29;100.00
13348;BME280;6743;49.934;9.138;2023-01-20T01:21:26;99930.72;;;0.36;100.00
13348;BME280;6743;49.934;9.138;2023-01-20T01:23:52;99929.91;;;0.35;100.00
13348;BME280;6743;49.934;9.138;2023-01-20T01:26:18;99930.03;;;0.34;100.00
13348;BME280;6743;49.934;9.138;2023-01-20T01:28:46;99933.56;;;0.33;100.00
13348;BME280;6743;49.934;9.138;2023-01-20T01:31:12;99938.78;;;0.33;100.00
13348;BME280;6743;49.934;9.138;2023-01-20T01:33:38;99934.63;;;0.30;100.00
13348;BME280;6743;49.934;9.138;2023-01-20T01:36:05;99932.03;;;0.18;100.00
13348;BME280;6743;49.934;9.138;2023-01-20T01:38:33;99940.75;;;0.29;100.00
13348;BME280;6743;49.934;9.138;2023-01-20T01:41:00;99941.69;;;0.28;100.00
13348;BME280;6743;49.934;9.138;2023-01-20T01:43:27;99950.50;;;0.27;100.00
13348;BME280;6743;49.934;9.138;2023-01-20T01:45:54;99955.91;;;0.24;100.00
13348;BME280;6743;49.934;9.138;2023-01-20T01:48:21;99960.41;;;0.22;100.00
13348;BME280;6743;49.934;9.138;2023-01-20T01:50:52;99945.28;;;0.15;100.00
13348;BME280;6743;49.934;9.138;2023-01-20T01:53:20;99961.47;;;0.20;100.00
13348;BME280;6743;49.934;9.138;2023-01-20T01:55:50;99956.25;;;0.20;100.00
13348;BME280;6743;49.934;9.138;2023-01-20T01:58:19;99961.34;;;0.21;100.00
13348;BME280;6743;49.934;9.138;2023-01-20T02:00:47;99958.03;;;0.19;100.00
13348;BME280;6743;49.934;9.138;2023-01-20T02:03:13;99958.13;;;0.18;100.00
13348;BME280;6743;49.934;9.138;2023-01-20T02:05:40;99966.03;;;0.16;100.00
13348;BME280;6743;49.934;9.138;2023-01-20T02:08:07;99967.81;;;0.16;100.00
13348;BME280;6743;49.934;9.138;2023-01-20T02:10:33;99949.56;;;0.03;100.00
13348;BME280;6743;49.934;9.138;2023-01-20T02:13:00;99969.91;;;0.11;100.00
13348;BME280;6743;49.934;9.138;2023-01-20T02:15:30;99970.00;;;0.09;100.00
13348;BME280;6743;49.934;9.138;2023-01-20T02:18:12;99969.28;;;0.07;100.00
13348;BME280;6743;49.934;9.138;2023-01-20T02:21:06;99963.34;;;0.05;100.00
13348;BME280;6743;49.934;9.138;2023-01-20T02:23:56;99964.28;;;0.04;100.00
13348;BME280;6743;49.934;9.138;2023-01-20T02:26:41;99970.53;;;0.02;100.00
13348;BME280;6743;49.934;9.138;2023-01-20T02:29:38;99978.59;;;-0.02;100.00
13348;BME280;6743;49.934;9.138;2023-01-20T02:32:19;99987.34;;;-0.03;100.00
13348;BME280;6743;49.934;9.138;2023-01-20T02:34:53;99995.06;;;-0.01;100.00
13348;BME280;6743;49.934;9.138;2023-01-20T02:37:26;99989.94;;;-0.03;100.00
13348;BME280;6743;49.934;9.138;2023-01-20T02:39:59;99990.03;;;-0.04;100.00
13348;BME280;6743;49.934;9.138;2023-01-20T02:42:36;99996.09;;;-0.04;100.00
13348;BME280;6743;49.934;9.138;2023-01-20T02:45:08;99997.78;;;-0.03;100.00
13348;BME280;6743;49.934;9.138;2023-01-20T02:47:42;100003.19;;;-0.06;100.00
13348;BME280;6743;49.934;9.138;2023-01-20T02:50:13;100012.78;;;-0.06;100.00
13348;BME280;6743;49.934;9.138;2023-01-20T02:52:43;100010.06;;;-0.05;100.00
13348;BME280;6743;49.934;9.138;2023-01-20T02:55:14;100008.41;;;-0.06;100.00
13348;BME280;6743;49.934;9.138;2023-01-20T02:57:44;100005.69;;;-0.04;100.00
13348;BME280;6743;49.934;9.138;2023-01-20T03:00:15;100015.28;;;-0.05;100.00
13348;BME280;6743;49.934;9.138;2023-01-20T03:02:45;100018.62;;;-0.03;100.00
13348;BME280;6743;49.934;9.138;2023-01-20T03:05:16;100019.56;;;-0.04;100.00
13348;BME280;6743;49.934;9.138;2023-01-20T03:07:44;100023.09;;;-0.05;100.00
13348;BME280;6743;49.934;9.138;2023-01-20T03:10:15;100027.37;;;-0.04;100.00
13348;BME280;6743;49.934;9.138;2023-01-20T03:12:45;100030.75;;;-0.02;100.00
13348;BME280;6743;49.934;9.138;2023-01-20T03:15:14;100024.69;;;-0.02;100.00
13348;BME280;6743;49.934;9.138;2023-01-20T03:17:40;100028.03;;;0.00;100.00
13348;BME280;6743;49.934;9.138;2023-01-20T03:20:08;100027.06;;;0.01;100.00
13348;BME280;6743;49.934;9.138;2023-01-20T03:22:35;100026.13;;;0.02;100.00
13348;BME280;6743;49.934;9.138;2023-01-20T03:25:02;100029.66;;;0.01;100.00
13348;BME280;6743;49.934;9.138;2023-01-20T03:27:28;100031.34;;;0.02;100.00
13348;BME280;6743;49.934;9.138;2023-01-20T03:30:00;100025.53;;;-0.02;100.00
13348;BME280;6743;49.934;9.138;2023-01-20T03:32:26;100034.69;;;0.04;100.00
13348;BME280;6743;49.934;9.138;2023-01-20T03:34:54;100024.69;;;-0.02;100.00
13348;BME280;6743;49.934;9.138;2023-01-20T03:37:22;100038.16;;;0.05;100.00
13348;BME280;6743;49.934;9.138;2023-01-20T03:39:51;100038.03;;;0.06;100.00
13348;BME280;6743;49.934;9.138;2023-01-20T03:42:23;100026.34;;;-0.01;100.00
13348;BME280;6743;49.934;9.138;2023-01-20T03:44:59;100030.94;;;0.08;100.00
13348;BME280;6743;49.934;9.138;2023-01-20T03:47:35;100039.59;;;0.09;100.00
13348;BME280;6743;49.934;9.138;2023-01-20T03:50:08;100045.66;;;0.09;100.00
13348;BME280;6743;49.934;9.138;2023-01-20T03:52:40;100034.78;;;0.03;100.00
13348;BME280;6743;49.934;9.138;2023-01-20T03:55:12;100046.47;;;0.10;100.00
13348;BME280;6743;49.934;9.138;2023-01-20T03:57:43;100040.53;;;0.08;100.00
13348;BME280;6743;49.934;9.138;2023-01-20T04:00:11;100045.13;;;0.04;100.00
13348;BME280;6743;49.934;9.138;2023-01-20T04:02:37;100048.66;;;0.03;100.00
13348;BME280;6743;49.934;9.138;2023-01-20T04:05:06;100053.28;;;-0.01;100.00
13348;BME280;6743;49.934;9.138;2023-01-20T04:07:32;100063.06;;;-0.04;100.00
13348;BME280;6743;49.934;9.138;2023-01-20T04:10:03;100057.94;;;-0.06;100.00
13348;BME280;6743;49.934;9.138;2023-01-20T04:12:30;100057.09;;;-0.06;100.00
13348;BME280;6743;49.934;9.138;2023-01-20T04:14:56;100043.44;;;-0.10;100.00
13348;BME280;6743;49.934;9.138;2023-01-20T04:17:25;100048.56;;;-0.08;100.00
13348;BME280;6743;49.934;9.138;2023-01-20T04:19:51;100052.94;;;-0.09;100.00
13348;BME280;6743;49.934;9.138;2023-01-20T04:22:23;100055.56;;;-0.09;100.00
13348;BME280;6743;49.934;9.138;2023-01-20T04:24:53;100056.38;;;-0.08;100.00
13348;BME280;6743;49.934;9.138;2023-01-20T04:27:23;100052.94;;;-0.09;100.00
13348;BME280;6743;49.934;9.138;2023-01-20T04:29:48;100053.56;;;-0.05;100.00
13348;BME280;6743;49.934;9.138;2023-01-20T04:32:14;100052.72;;;-0.06;100.00
13348;BME280;6743;49.934;9.138;2023-01-20T04:34:40;100040.31;;;-0.15;100.00
13348;BME280;6743;49.934;9.138;2023-01-20T04:37:06;100049.19;;;-0.05;100.00
13348;BME280;6743;49.934;9.138;2023-01-20T04:39:32;100049.19;;;-0.05;100.00
13348;BME280;6743;49.934;9.138;2023-01-20T04:41:58;100051.78;;;-0.05;100.00
13348;BME280;6743;49.934;9.138;2023-01-20T04:44:25;100052.53;;;-0.03;100.00
13348;BME280;6743;49.934;9.138;2023-01-20T04:46:55;100050.75;;;-0.02;100.00
13348;BME280;6743;49.934;9.138;2023-01-20T04:49:21;100055.13;;;-0.03;100.00
13348;BME280;6743;49.934;9.138;2023-01-20T04:51:47;100068.28;;;-0.04;100.00
13348;BME280;6743;49.934;9.138;2023-01-20T04:54:13;100072.66;;;-0.05;100.00
13348;BME280;6743;49.934;9.138;2023-01-20T04:56:39;100075.16;;;-0.03;100.00
13348;BME280;6743;49.934;9.138;2023-01-20T04:59:05;100078.69;;;-0.04;100.00
13348;BME280;6743;49.934;9.138;2023-01-20T05:01:31;100083.06;;;-0.05;100.00
13348;BME280;6743;49.934;9.138;2023-01-20T05:03:57;100082.25;;;-0.05;100.00
13348;BME280;6743;49.934;9.138;2023-01-20T05:06:23;100087.47;;;-0.05;100.00
13348;BME280;6743;49.934;9.138;2023-01-20T05:08:49;100090.06;;;-0.05;100.00
13348;BME280;6743;49.934;9.138;2023-01-20T05:11:15;100097.87;;;-0.05;100.00
13348;BME280;6743;49.934;9.138;2023-01-20T05:13:41;100100.50;;;-0.05;100.00
13348;BME280;6743;49.934;9.138;2023-01-20T05:16:08;100096.22;;;-0.06;100.00
13348;BME280;6743;49.934;9.138;2023-01-20T05:18:35;100098.94;;;-0.08;100.00
13348;BME280;6743;49.934;9.138;2023-01-20T05:21:02;100105.94;;;-0.08;100.00
13348;BME280;6743;49.934;9.138;2023-01-20T05:23:28;100115.53;;;-0.09;100.00
13348;BME280;6743;49.934;9.138;2023-01-20T05:25:54;100102.34;;;-0.20;100.00
13348;BME280;6743;49.934;9.138;2023-01-20T05:28:21;100115.44;;;-0.07;100.00
13348;BME280;6743;49.934;9.138;2023-01-20T05:30:47;100116.34;;;-0.08;100.00
13348;BME280;6743;49.934;9.138;2023-01-20T05:33:13;100115.53;;;-0.09;100.00
13348;BME280;6743;49.934;9.138;2023-01-20T05:35:39;100113.19;;;-0.13;100.00
13348;BME280;6743;49.934;9.138;2023-01-20T05:38:05;100132.94;;;-0.09;100.00
13348;BME280;6743;49.934;9.138;2023-01-20T05:40:34;100135.53;;;-0.09;100.00
13348;BME280;6743;49.934;9.138;2023-01-20T05:43:00;100129.41;;;-0.08;100.00
13348;BME280;6743;49.934;9.138;2023-01-20T05:45:26;100133.69;;;-0.07;100.00
13348;BME280;6743;49.934;9.138;2023-01-20T05:47:54;100137.09;;;-0.07;100.00
13348;BME280;6743;49.934;9.138;2023-01-20T05:50:20;100140.53;;;-0.06;100.00
13348;BME280;6743;49.934;9.138;2023-01-20T05:52:47;100148.34;;;-0.06;100.00
13348;BME280;6743;49.934;9.138;2023-01-20T05:55:13;100145.03;;;-0.08;100.00
13348;BME280;6743;49.934;9.138;2023-01-20T05:57:39;100147.53;;;-0.07;100.00
13348;BME280;6743;49.934;9.138;2023-01-20T06:00:06;100150.03;;;-0.05;100.00
13348;BME280;6743;49.934;9.138;2023-01-20T06:02:32;100154.31;;;-0.04;100.00
13348;BME280;6743;49.934;9.138;2023-01-20T06:04:58;100158.59;;;-0.03;100.00
13348;BME280;6743;49.934;9.138;2023-01-20T06:07:26;100154.22;;;-0.03;100.00
13348;BME280;6743;49.934;9.138;2023-01-20T06:09:52;100143.75;;;-0.15;100.00
13348;BME280;6743;49.934;9.138;2023-01-20T06:12:18;100162.06;;;-0.03;100.00
13348;BME280;6743;49.934;9.138;2023-01-20T06:14:44;100160.19;;;-0.01;100.00
13348;BME280;6743;49.934;9.138;2023-01-20T06:17:10;100163.72;;;-0.02;100.00
13348;BME280;6743;49.934;9.138;2023-01-20T06:19:36;100169.78;;;-0.01;100.00
13348;BME280;6743;49.934;9.138;2023-01-20T06:22:03;100166.25;;;0.00;100.00
13348;BME280;6743;49.934;9.138;2023-01-20T06:24:29;100167.06;;;0.00;100.00
13348;BME280;6743;49.934;9.138;2023-01-20T06:26:56;100165.28;;;0.01;100.00
13348;BME280;6743;49.934;9.138;2023-01-20T06:29:22;100167.78;;;0.03;100.00
13348;BME280;6743;49.934;9.138;2023-01-20T06:31:48;100174.78;;;0.02;100.00
13348;BME280;6743;49.934;9.138;2023-01-20T06:34:14;100174.69;;;0.04;100.00
13348;BME280;6743;49.934;9.138;2023-01-20T06:36:40;100182.69;;;0.00;100.00
13348;BME280;6743;49.934;9.138;2023-01-20T06:39:06;100183.66;;;-0.01;100.00
13348;BME280;6743;49.934;9.138;2023-01-20T06:41:32;100195.88;;;-0.01;100.00
13348;BME280;6743;49.934;9.138;2023-01-20T06:43:58;100193.13;;;0.00;100.00
13348;BME280;6743;49.934;9.138;2023-01-20T06:46:24;100199.19;;;0.01;100.00
13348;BME280;6743;49.934;9.138;2023-01-20T06:48:51;100197.41;;;0.02;100.00
13348;BME280;6743;49.934;9.138;2023-01-20T06:51:19;100197.72;;;-0.03;100.00
13348;BME280;6743;49.934;9.138;2023-01-20T06:53:45;100205.97;;;0.04;100.00
13348;BME280;6743;49.934;9.138;2023-01-20T06:56:13;100209.53;;;0.03;100.00
13348;BME280;6743;49.934;9.138;2023-01-20T06:58:39;100214.13;;;-0.01;100.00
13348;BME280;6743;49.934;9.138;2023-01-20T07:01:09;100232.56;;;-0.04;100.00
13348;BME280;6743;49.934;9.138;2023-01-20T07:03:35;100237.84;;;-0.06;100.00
13348;BME280;6743;49.934;9.138;2023-01-20T07:06:03;100240.69;;;-0.09;100.00
13348;BME280;6743;49.934;9.138;2023-01-20T07:08:30;100240.78;;;-0.10;100.00
13348;BME280;6743;49.934;9.138;2023-01-20T07:10:56;100248.59;;;-0.10;100.00
13348;BME280;6743;49.934;9.138;2023-01-20T07:13:22;100254.75;;;-0.11;100.00
13348;BME280;6743;49.934;9.138;2023-01-20T07:15:48;100253.91;;;-0.12;100.00
13348;BME280;6743;49.934;9.138;2023-01-20T07:18:15;100255.66;;;-0.12;100.00
13348;BME280;6743;49.934;9.138;2023-01-20T07:20:41;100253.06;;;-0.12;100.00
13348;BME280;6743;49.934;9.138;2023-01-20T07:23:08;100255.75;;;-0.14;100.00
13348;BME280;6743;49.934;9.138;2023-01-20T07:25:34;100254.00;;;-0.13;100.00
13348;BME280;6743;49.934;9.138;2023-01-20T07:28:02;100259.94;;;-0.11;100.00
13348;BME280;6743;49.934;9.138;2023-01-20T07:30:28;100259.94;;;-0.11;100.00
13348;BME280;6743;49.934;9.138;2023-01-20T07:32:54;100264.22;;;-0.10;100.00
13348;BME280;6743;49.934;9.138;2023-01-20T07:35:21;100262.56;;;-0.11;100.00
13348;BME280;6743;49.934;9.138;2023-01-20T07:37:47;100261.72;;;-0.12;100.00
13348;BME280;6743;49.934;9.138;2023-01-20T07:40:13;100273.00;;;-0.11;100.00
13348;BME280;6743;49.934;9.138;2023-01-20T07:42:39;100267.78;;;-0.11;100.00
13348;BME280;6743;49.934;9.138;2023-01-20T07:45:06;100285.19;;;-0.12;100.00
13348;BME280;6743;49.934;9.138;2023-01-20T07:47:32;100285.09;;;-0.10;100.00
13348;BME280;6743;49.934;9.138;2023-01-20T07:49:58;100300.81;;;-0.12;100.00
13348;BME280;6743;49.934;9.138;2023-01-20T07:52:24;100299.06;;;-0.11;100.00
13348;BME280;6743;49.934;9.138;2023-01-20T07:54:50;100304.28;;;-0.11;100.00
13348;BME280;6743;49.934;9.138;2023-01-20T07:57:16;100311.25;;;-0.12;100.00
13348;BME280;6743;49.934;9.138;2023-01-20T07:59:42;100304.19;;;-0.10;100.00
13348;BME280;6743;49.934;9.138;2023-01-20T08:02:08;100305.03;;;-0.09;100.00
13348;BME280;6743;49.934;9.138;2023-01-20T08:04:34;100308.37;;;-0.07;100.00
13348;BME280;6743;49.934;9.138;2023-01-20T08:07:00;100308.37;;;-0.07;100.00
13348;BME280;6743;49.934;9.138;2023-01-20T08:09:27;100311.91;;;-0.08;100.00
13348;BME280;6743;49.934;9.138;2023-01-20T08:11:53;100307.53;;;-0.08;100.00
13348;BME280;6743;49.934;9.138;2023-01-20T08:14:19;100315.47;;;-0.09;100.00
13348;BME280;6743;49.934;9.138;2023-01-20T08:16:45;100314.72;;;-0.25;100.00
13348;BME280;6743;49.934;9.138;2023-01-20T08:19:11;100331.97;;;-0.23;100.00
13348;BME280;6743;49.934;9.138;2023-01-20T08:21:37;100340.88;;;-0.27;100.00
13348;BME280;6743;49.934;9.138;2023-01-20T08:24:03;100346.31;;;-0.30;100.00
13348;BME280;6743;49.934;9.138;2023-01-20T08:26:31;100352.44;;;-0.31;100.00
13348;BME280;6743;49.934;9.138;2023-01-20T08:29:02;100352.34;;;-0.29;100.00
13348;BME280;6743;49.934;9.138;2023-01-20T08:31:28;100350.38;;;-0.26;100.00
13348;BME280;6743;49.934;9.138;2023-01-20T08:33:55;100348.44;;;-0.22;100.00
13348;BME280;6743;49.934;9.138;2023-01-20T08:36:23;100354.38;;;-0.20;100.00
13348;BME280;6743;49.934;9.138;2023-01-20T08:38:49;100347.97;;;-0.15;100.00
13348;BME280;6743;49.934;9.138;2023-01-20T08:41:18;100353.72;;;-0.10;100.00
13348;BME280;6743;49.934;9.138;2023-01-20T08:43:45;100343.94;;;-0.06;100.00
13348;BME280;6743;49.934;9.138;2023-01-20T08:46:13;100348.97;;;-0.03;100.00
13348;BME280;6743;49.934;9.138;2023-01-20T08:48:41;100349.72;;;-0.01;100.00
13348;BME280;6743;49.934;9.138;2023-01-20T08:51:10;100345.22;;;0.01;100.00
13348;BME280;6743;49.934;9.138;2023-01-20T08:53:38;100344.03;;;0.07;100.00
13348;BME280;6743;49.934;9.138;2023-01-20T08:56:05;100348.09;;;0.11;100.00
13348;BME280;6743;49.934;9.138;2023-01-20T08:58:32;100347.94;;;0.14;100.00
13348;BME280;6743;49.934;9.138;2023-01-20T09:00:59;100332.09;;;0.03;100.00
13348;BME280;6743;49.934;9.138;2023-01-20T09:03:25;100359.84;;;0.18;100.00
13348;BME280;6743;49.934;9.138;2023-01-20T09:05:51;100364.84;;;0.21;100.00
13348;BME280;6743;49.934;9.138;2023-01-20T09:08:18;100366.44;;;0.23;100.00
13348;BME280;6743;49.934;9.138;2023-01-20T09:10:45;100368.94;;;0.25;100.00
13348;BME280;6743;49.934;9.138;2023-01-20T09:13:11;100374.06;;;0.26;100.00
13348;BME280;6743;49.934;9.138;2023-01-20T09:15:37;100380.97;;;0.27;100.00
13348;BME280;6743;49.934;9.138;2023-01-20T09:18:04;100381.69;;;0.29;100.00
13348;BME280;6743;49.934;9.138;2023-01-20T09:20:30;100379.84;;;0.31;100.00
13348;BME280;6743;49.934;9.138;2023-01-20T09:23:00;100385.91;;;0.32;100.00
13348;BME280;6743;49.934;9.138;2023-01-20T09:25:27;100388.41;;;0.33;100.00
13348;BME280;6743;49.934;9.138;2023-01-20T09:27:53;100394.34;;;0.35;100.00
13348;BME280;6743;49.934;9.138;2023-01-20T09:30:19;100405.53;;;0.37;100.00
13348;BME280;6743;49.934;9.138;2023-01-20T09:32:45;100401.78;;;0.42;100.00
13348;BME280;6743;49.934;9.138;2023-01-20T09:35:11;100405.06;;;0.45;100.00
13348;BME280;6743;49.934;9.138;2023-01-20T09:37:37;100404.88;;;0.48;100.00
13348;BME280;6743;49.934;9.138;2023-01-20T09:40:26;100413.53;;;0.49;100.00
13348;BME280;6743;49.934;9.138;2023-01-20T09:43:27;100420.34;;;0.51;100.00
13348;BME280;6743;49.934;9.138;2023-01-20T09:46:17;100420.41;;;0.50;100.00
13348;BME280;6743;49.934;9.138;2023-01-20T09:48:51;100426.38;;;0.52;100.00
13348;BME280;6743;49.934;9.138;2023-01-20T09:51:44;100422.84;;;0.53;100.00
13348;BME280;6743;49.934;9.138;2023-01-20T09:54:37;100423.59;;;0.55;100.00
13348;BME280;6743;49.934;9.138;2023-01-20T09:57:07;100426.09;;;0.56;100.00
13348;BME280;6743;49.934;9.138;2023-01-20T09:59:38;100419.41;;;0.52;100.00
13348;BME280;6743;49.934;9.138;2023-01-20T10:02:10;100424.97;;;0.60;100.00
13348;BME280;6743;49.934;9.138;2023-01-20T10:04:41;100408.88;;;0.54;100.00
13348;BME280;6743;49.934;9.138;2023-01-20T10:07:12;100419.00;;;0.58;100.00
13348;BME280;6743;49.934;9.138;2023-01-20T10:09:44;100421.72;;;0.57;100.00
13348;BME280;6743;49.934;9.138;2023-01-20T10:12:18;100431.50;;;0.67;100.00
13348;BME280;6743;49.934;9.138;2023-01-20T10:14:49;100409.31;;;0.60;100.00
13348;BME280;6743;49.934;9.138;2023-01-20T10:17:23;100436.31;;;0.73;100.00
13348;BME280;6743;49.934;9.138;2023-01-20T10:19:53;100436.09;;;0.76;100.00
13348;BME280;6743;49.934;9.138;2023-01-20T10:22:29;100434.25;;;0.78;100.00
13348;BME280;6743;49.934;9.138;2023-01-20T10:25:01;100434.06;;;0.82;100.00
13348;BME280;6743;49.934;9.138;2023-01-20T10:27:32;100426.94;;;0.84;100.00
13348;BME280;6743;49.934;9.138;2023-01-20T10:30:05;100434.59;;;0.87;100.00
13348;BME280;6743;49.934;9.138;2023-01-20T10:32:33;100429.38;;;0.87;100.00
13348;BME280;6743;49.934;9.138;2023-01-20T10:35:06;100440.44;;;0.90;100.00
13348;BME280;6743;49.934;9.138;2023-01-20T10:37:36;100437.03;;;0.90;100.00
13348;BME280;6743;49.934;9.138;2023-01-20T10:40:09;100416.63;;;0.82;100.00
13348;BME280;6743;49.934;9.138;2023-01-20T10:42:43;100430.81;;;0.91;100.00
13348;BME280;6743;49.934;9.138;2023-01-20T10:45:16;100428.34;;;0.89;100.00
13348;BME280;6743;49.934;9.138;2023-01-20T10:47:51;100432.72;;;0.89;100.00
13348;BME280;6743;49.934;9.138;2023-01-20T10:50:42;100429.28;;;0.88;100.00
13348;BME280;6743;49.934;9.138;2023-01-20T10:53:23;100434.50;;;0.88;100.00
13348;BME280;6743;49.934;9.138;2023-01-20T10:56:05;100435.97;;;0.92;100.00
13348;BME280;6743;49.934;9.138;2023-01-20T10:58:35;100431.41;;;0.96;100.00
13348;BME280;6743;49.934;9.138;2023-01-20T11:01:04;100424.50;;;0.95;100.00
13348;BME280;6743;49.934;9.138;2023-01-20T11:03:35;100438.72;;;1.03;100.00
13348;BME280;6743;49.934;9.138;2023-01-20T11:06:02;100430.47;;;0.97;100.00
13348;BME280;6743;49.934;9.138;2023-01-20T11:08:29;100450.00;;;1.04;100.00
13348;BME280;6743;49.934;9.138;2023-01-20T11:10:58;100450.84;;;1.04;100.00
13348;BME280;6743;49.934;9.138;2023-01-20T11:13:25;100455.78;;;1.09;100.00
13348;BME280;6743;49.934;9.138;2023-01-20T11:15:54;100453.78;;;1.12;100.00
13348;BME280;6743;49.934;9.138;2023-01-20T11:18:26;100455.38;;;1.15;100.00
13348;BME280;6743;49.934;9.138;2023-01-20T11:20:56;100456.97;;;1.17;100.00
13348;BME280;6743;49.934;9.138;2023-01-20T11:23:33;100457.78;;;1.18;100.00
13348;BME280;6743;49.934;9.138;2023-01-20T11:26:02;100460.09;;;1.23;100.00
13348;BME280;6743;49.934;9.138;2023-01-20T11:28:44;100460.81;;;1.25;100.00
13348;BME280;6743;49.934;9.138;2023-01-20T11:31:12;100467.63;;;1.27;100.00
13348;BME280;6743;49.934;9.138;2023-01-20T11:33:38;100466.78;;;1.27;100.00
13348;BME280;6743;49.934;9.138;2023-01-20T11:36:06;100471.09;;;1.28;100.00
13348;BME280;6743;49.934;9.138;2023-01-20T11:38:42;100472.94;;;1.26;100.00
13348;BME280;6743;49.934;9.138;2023-01-20T11:41:18;100471.84;;;1.30;100.00
13348;BME280;6743;49.934;9.138;2023-01-20T11:43:44;100472.53;;;1.32;100.00
13348;BME280;6743;49.934;9.138;2023-01-20T11:46:14;100473.28;;;1.34;100.00
13348;BME280;6743;49.934;9.138;2023-01-20T11:48:45;100478.44;;;1.35;100.00
13348;BME280;6743;49.934;9.138;2023-01-20T11:51:20;100471.34;;;1.37;100.00
13348;BME280;6743;49.934;9.138;2023-01-20T11:53:46;100471.94;;;1.41;100.00
13348;BME280;6743;49.934;9.138;2023-01-20T11:56:18;100478.03;;;1.41;100.00
13348;BME280;6743;49.934;9.138;2023-01-20T11:58:52;100477.94;;;1.43;100.00
13348;BME280;6743;49.934;9.138;2023-01-20T12:01:23;100476.16;;;1.43;100.00
13348;BME280;6743;49.934;9.138;2023-01-20T12:04:16;100476.06;;;1.45;100.00
13348;BME280;6743;49.934;9.138;2023-01-20T12:06:49;100473.22;;;1.48;100.00
13348;BME280;6743;49.934;9.138;2023-01-20T12:09:19;100453.03;;;1.37;100.00
13348;BME280;6743;49.934;9.138;2023-01-20T12:11:52;100477.19;;;1.53;100.00
13348;BME280;6743;49.934;9.138;2023-01-20T12:14:23;100468.53;;;1.53;100.00
13348;BME280;6743;49.934;9.138;2023-01-20T12:17:12;100475.34;;;1.55;100.00
13348;BME280;6743;49.934;9.138;2023-01-20T12:19:54;100475.97;;;1.59;100.00
13348;BME280;6743;49.934;9.138;2023-01-20T12:22:25;100478.38;;;1.62;100.00
13348;BME280;6743;49.934;9.138;2023-01-20T12:24:58;100479.22;;;1.63;100.00
13348;BME280;6743;49.934;9.138;2023-01-20T12:27:41;100474.50;;;1.68;100.00
13348;BME280;6743;49.934;9.138;2023-01-20T12:30:22;100460.06;;;1.62;100.00
13348;BME280;6743;49.934;9.138;2023-01-20T12:32:52;100469.00;;;1.72;100.00
13348;BME280;6743;49.934;9.138;2023-01-20T12:35:21;100479.22;;;1.75;100.00
13348;BME280;6743;49.934;9.138;2023-01-20T12:37:53;100477.34;;;1.77;100.00
13348;BME280;6743;49.934;9.138;2023-01-20T12:40:28;100484.03;;;1.81;100.00
13348;BME280;6743;49.934;9.138;2023-01-20T12:46:18;100476.59;;;1.75;100.00
13348;BME280;6743;49.934;9.138;2023-01-20T12:48:56;100495.75;;;1.88;100.00
13348;BME280;6743;49.934;9.138;2023-01-20T12:51:36;100499.97;;;1.91;100.00
13348;BME280;6743;49.934;9.138;2023-01-20T12:54:27;100504.25;;;1.92;100.00
13348;BME280;6743;49.934;9.138;2023-01-20T12:57:02;100505.19;;;1.91;100.00
13348;BME280;6743;49.934;9.138;2023-01-20T12:59:40;100513.88;;;1.91;100.00
13348;BME280;6743;49.934;9.138;2023-01-20T13:02:30;100503.41;;;1.91;100.00
13348;BME280;6743;49.934;9.138;2023-01-20T13:05:31;100507.81;;;1.91;100.00
13348;BME280;6743;49.934;9.138;2023-01-20T13:08:09;100506.13;;;1.90;100.00
13348;BME280;6743;49.934;9.138;2023-01-20T13:10:47;100493.03;;;1.77;100.00
13348;BME280;6743;49.934;9.138;2023-01-20T13:13:21;100515.13;;;1.86;100.00